sensor_id;sensor_type;location;lat;lon;timestamp;pressure;altitude;pressure_sealevel;temperature;humidity
42289;BME280;30230;47.520;19.016;2023-05-08T00:01:18;99497.53;;;11.13;79.53
42289;BME280;30230;47.520;19.016;2023-05-08T00:03:18;99498.75;;;11.11;78.73
42289;BME280;30230;47.520;19.016;2023-05-08T00:05:19;99497.78;;;11.18;78.69
42289;BME280;30230;47.520;19.016;2023-05-08T00:07:19;99500.91;;;11.22;78.25
42289;BME280;30230;47.520;19.016;2023-05-08T00:09:20;99500.69;;;11.24;77.53
42289;BME280;30230;47.520;19.016;2023-05-08T00:11:20;99498.81;;;11.17;78.45
42289;BME280;30230;47.520;19.016;2023-05-08T00:13:21;99488.38;;;11.14;78.76
42289;BME280;30230;47.520;19.016;2023-05-08T00:15:21;99497.16;;;11.16;77.75
42289;BME280;30230;47.520;19.016;2023-05-08T00:17:22;99489.63;;;11.12;78.16
42289;BME280;30230;47.520;19.016;2023-05-08T00:19:22;99502.50;;;11.10;79.20
42289;BME280;30230;47.520;19.016;2023-05-08T00:21:23;99507.09;;;11.09;78.00
42289;BME280;30230;47.520;19.016;2023-05-08T00:23:23;99504.59;;;11.08;78.06
42289;BME280;30230;47.520;19.016;2023-05-08T00:25:25;99507.69;;;11.05;78.63
42289;BME280;30230;47.520;19.016;2023-05-08T00:27:25;99516.22;;;11.02;78.02
42289;BME280;30230;47.520;19.016;2023-05-08T00:29:26;99502.47;;;10.97;78.63
42289;BME280;30230;47.520;19.016;2023-05-08T00:31:26;99512.03;;;10.99;78.25
42289;BME280;30230;47.520;19.016;2023-05-08T00:33:27;99510.13;;;10.93;78.12
42289;BME280;30230;47.520;19.016;2023-05-08T00:35:27;99510.75;;;10.95;79.24
42289;BME280;30230;47.520;19.016;2023-05-08T00:37:27;99511.16;;;10.92;78.28
42289;BME280;30230;47.520;19.016;2023-05-08T00:39:28;99499.66;;;10.77;81.20
42289;BME280;30230;47.520;19.016;2023-05-08T00:41:28;99491.94;;;10.74;79.44
42289;BME280;30230;47.520;19.016;2023-05-08T00:43:29;99498.59;;;10.78;80.16
42289;BME280;30230;47.520;19.016;2023-05-08T00:45:36;99502.13;;;10.78;80.00
42289;BME280;30230;47.520;19.016;2023-05-08T00:47:37;99501.47;;;10.69;79.09
42289;BME280;30230;47.520;19.016;2023-05-08T00:49:37;99499.75;;;10.62;79.59
42289;BME280;30230;47.520;19.016;2023-05-08T00:51:39;99506.00;;;10.62;79.91
42289;BME280;30230;47.520;19.016;2023-05-08T00:53:42;99496.78;;;10.50;80.86
42289;BME280;30230;47.520;19.016;2023-05-08T00:55:43;99510.47;;;10.49;81.89
42289;BME280;30230;47.520;19.016;2023-05-08T00:57:45;99504.06;;;10.50;82.41
42289;BME280;30230;47.520;19.016;2023-05-08T00:59:48;99505.72;;;10.51;81.30
42289;BME280;30230;47.520;19.016;2023-05-08T01:01:48;99510.03;;;10.45;81.23
42289;BME280;30230;47.520;19.016;2023-05-08T01:03:49;99511.47;;;10.41;81.96
42289;BME280;30230;47.520;19.016;2023-05-08T01:05:50;99502.88;;;10.31;83.18
42289;BME280;30230;47.520;19.016;2023-05-08T01:07:51;99514.28;;;10.33;83.64
42289;BME280;30230;47.520;19.016;2023-05-08T01:09:51;99522.97;;;10.28;82.40
42289;BME280;30230;47.520;19.016;2023-05-08T01:12:02;99520.91;;;10.24;82.80
42289;BME280;30230;47.520;19.016;2023-05-08T01:14:28;99520.53;;;10.12;83.98
42289;BME280;30230;47.520;19.016;2023-05-08T01:16:55;99530.50;;;10.11;84.30
42289;BME280;30230;47.520;19.016;2023-05-08T01:19:06;99513.78;;;10.01;84.77
42289;BME280;30230;47.520;19.016;2023-05-08T01:21:30;99532.88;;;10.00;85.45
42289;BME280;30230;47.520;19.016;2023-05-08T01:24:46;99541.19;;;9.98;85.26
42289;BME280;30230;47.520;19.016;2023-05-08T01:32:10;99545.41;;;9.86;87.36
42289;BME280;30230;47.520;19.016;2023-05-08T01:34:14;99548.09;;;9.86;86.83
42289;BME280;30230;47.520;19.016;2023-05-08T01:38:45;99541.50;;;9.88;86.94
42289;BME280;30230;47.520;19.016;2023-05-08T01:40:51;99544.38;;;9.87;87.04
42289;BME280;30230;47.520;19.016;2023-05-08T01:43:05;99542.28;;;9.82;86.99
42289;BME280;30230;47.520;19.016;2023-05-08T01:45:13;99534.56;;;9.79;87.91
42289;BME280;30230;47.520;19.016;2023-05-08T01:47:18;99551.00;;;9.84;86.95
42289;BME280;30230;47.520;19.016;2023-05-08T01:49:23;99550.38;;;9.82;87.60
42289;BME280;30230;47.520;19.016;2023-05-08T01:51:27;99555.75;;;9.82;86.92
42289;BME280;30230;47.520;19.016;2023-05-08T01:53:40;99556.13;;;9.79;87.78
42289;BME280;30230;47.520;19.016;2023-05-08T01:55:42;99540.53;;;9.75;90.12
42289;BME280;30230;47.520;19.016;2023-05-08T01:57:46;99551.84;;;9.85;88.48
42289;BME280;30230;47.520;19.016;2023-05-08T01:59:48;99551.25;;;9.89;88.09
42289;BME280;30230;47.520;19.016;2023-05-08T02:01:54;99553.13;;;9.89;87.16
42289;BME280;30230;47.520;19.016;2023-05-08T02:03:57;99556.84;;;9.88;86.71
42289;BME280;30230;47.520;19.016;2023-05-08T02:05:59;99563.91;;;9.89;87.39
42289;BME280;30230;47.520;19.016;2023-05-08T02:08:00;99559.34;;;9.89;87.33
42289;BME280;30230;47.520;19.016;2023-05-08T02:10:02;99565.84;;;9.95;86.97
42289;BME280;30230;47.520;19.016;2023-05-08T02:12:05;99557.75;;;9.95;85.52
42289;BME280;30230;47.520;19.016;2023-05-08T02:14:07;99566.41;;;9.90;87.08
42289;BME280;30230;47.520;19.016;2023-05-08T02:16:09;99558.91;;;9.86;86.45
42289;BME280;30230;47.520;19.016;2023-05-08T02:18:10;99548.34;;;9.70;88.72
42289;BME280;30230;47.520;19.016;2023-05-08T02:20:12;99566.09;;;9.79;88.23
42289;BME280;30230;47.520;19.016;2023-05-08T02:22:15;99562.72;;;9.77;88.51
42289;BME280;30230;47.520;19.016;2023-05-08T02:24:17;99569.00;;;9.77;88.18
42289;BME280;30230;47.520;19.016;2023-05-08T02:26:19;99568.13;;;9.77;88.48
42289;BME280;30230;47.520;19.016;2023-05-08T02:28:22;99563.50;;;9.71;88.79
42289;BME280;30230;47.520;19.016;2023-05-08T02:30:24;99571.59;;;9.71;88.62
42289;BME280;30230;47.520;19.016;2023-05-08T02:32:25;99565.38;;;9.70;89.67
42289;BME280;30230;47.520;19.016;2023-05-08T02:34:26;99556.19;;;9.64;89.23
42289;BME280;30230;47.520;19.016;2023-05-08T02:36:28;99564.41;;;9.56;89.19
42289;BME280;30230;47.520;19.016;2023-05-08T02:38:30;99563.38;;;9.57;90.22
42289;BME280;30230;47.520;19.016;2023-05-08T02:40:31;99564.00;;;9.59;89.93
42289;BME280;30230;47.520;19.016;2023-05-08T02:42:31;99561.03;;;9.54;89.90
42289;BME280;30230;47.520;19.016;2023-05-08T02:44:32;99564.66;;;9.61;90.54
42289;BME280;30230;47.520;19.016;2023-05-08T02:48:40;99548.97;;;9.50;90.38
42289;BME280;30230;47.520;19.016;2023-05-08T02:51:17;99559.38;;;9.53;89.69
42289;BME280;30230;47.520;19.016;2023-05-08T02:53:25;99558.28;;;9.48;89.60
42289;BME280;30230;47.520;19.016;2023-05-08T02:55:39;99572.97;;;9.45;90.26
42289;BME280;30230;47.520;19.016;2023-05-08T02:57:52;99571.50;;;9.43;90.51
42289;BME280;30230;47.520;19.016;2023-05-08T03:00:01;99557.00;;;9.29;90.46
42289;BME280;30230;47.520;19.016;2023-05-08T03:02:11;99578.06;;;9.40;90.28
42289;BME280;30230;47.520;19.016;2023-05-08T03:04:52;99578.63;;;9.35;91.01
42289;BME280;30230;47.520;19.016;2023-05-08T03:06:45;99583.50;;;9.25;90.62
42289;BME280;30230;47.520;19.016;2023-05-08T03:08:47;99575.31;;;9.19;91.37
42289;BME280;30230;47.520;19.016;2023-05-08T03:10:51;99566.50;;;8.95;92.00
42289;BME280;30230;47.520;19.016;2023-05-08T03:12:55;99574.22;;;8.98;92.05
42289;BME280;30230;47.520;19.016;2023-05-08T03:15:06;99581.53;;;9.04;91.96
42289;BME280;30230;47.520;19.016;2023-05-08T03:17:10;99578.56;;;8.99;93.17
42289;BME280;30230;47.520;19.016;2023-05-08T03:19:21;99566.03;;;8.92;92.92
42289;BME280;30230;47.520;19.016;2023-05-08T03:21:27;99577.94;;;8.97;92.68
42289;BME280;30230;47.520;19.016;2023-05-08T03:23:29;99567.06;;;8.91;93.92
42289;BME280;30230;47.520;19.016;2023-05-08T03:25:31;99575.22;;;8.97;93.18
42289;BME280;30230;47.520;19.016;2023-05-08T03:27:33;99576.75;;;9.00;94.54
42289;BME280;30230;47.520;19.016;2023-05-08T03:29:35;99567.44;;;9.02;94.38
42289;BME280;30230;47.520;19.016;2023-05-08T03:31:36;99577.66;;;9.07;93.69
42289;BME280;30230;47.520;19.016;2023-05-08T03:33:38;99567.22;;;9.04;94.02
42289;BME280;30230;47.520;19.016;2023-05-08T03:35:40;99576.63;;;9.08;93.38
42289;BME280;30230;47.520;19.016;2023-05-08T03:37:41;99576.25;;;9.11;94.54
42289;BME280;30230;47.520;19.016;2023-05-08T03:39:42;99573.38;;;9.12;94.62
42289;BME280;30230;47.520;19.016;2023-05-08T03:41:43;99567.69;;;9.22;94.60
42289;BME280;30230;47.520;19.016;2023-05-08T03:43:44;99584.03;;;9.35;92.95
42289;BME280;30230;47.520;19.016;2023-05-08T03:45:46;99583.19;;;9.35;92.76
42289;BME280;30230;47.520;19.016;2023-05-08T03:47:47;99578.06;;;9.40;93.67
42289;BME280;30230;47.520;19.016;2023-05-08T03:49:49;99587.47;;;9.44;92.24
42289;BME280;30230;47.520;19.016;2023-05-08T03:51:50;99578.75;;;9.42;92.27
42289;BME280;30230;47.520;19.016;2023-05-08T03:53:50;99581.84;;;9.60;91.79
42289;BME280;30230;47.520;19.016;2023-05-08T03:55:50;99594.78;;;9.65;90.69
42289;BME280;30230;47.520;19.016;2023-05-08T04:02:40;99583.97;;;10.01;81.75
42289;BME280;30230;47.520;19.016;2023-05-08T04:04:44;99593.19;;;9.92;79.69
42289;BME280;30230;47.520;19.016;2023-05-08T04:09:06;99595.28;;;10.11;77.85
42289;BME280;30230;47.520;19.016;2023-05-08T04:11:24;99602.75;;;10.09;78.60
42289;BME280;30230;47.520;19.016;2023-05-08T04:13:27;99595.69;;;10.08;79.51
42289;BME280;30230;47.520;19.016;2023-05-08T04:15:33;99608.00;;;10.17;78.67
42289;BME280;30230;47.520;19.016;2023-05-08T04:17:54;99604.72;;;10.22;77.89
42289;BME280;30230;47.520;19.016;2023-05-08T04:20:01;99599.31;;;10.22;78.22
42289;BME280;30230;47.520;19.016;2023-05-08T04:22:06;99616.72;;;10.34;75.13
42289;BME280;30230;47.520;19.016;2023-05-08T04:24:10;99612.25;;;10.48;74.11
42289;BME280;30230;47.520;19.016;2023-05-08T04:26:13;99618.66;;;10.40;74.37
42289;BME280;30230;47.520;19.016;2023-05-08T04:28:15;99620.44;;;10.33;74.11
42289;BME280;30230;47.520;19.016;2023-05-08T04:30:16;99617.47;;;10.28;75.86
42289;BME280;30230;47.520;19.016;2023-05-08T04:32:16;99632.97;;;10.41;73.89
42289;BME280;30230;47.520;19.016;2023-05-08T04:34:17;99626.69;;;10.34;76.72
42289;BME280;30230;47.520;19.016;2023-05-08T04:36:17;99629.91;;;10.44;76.52
42289;BME280;30230;47.520;19.016;2023-05-08T04:38:18;99636.06;;;10.38;75.47
42289;BME280;30230;47.520;19.016;2023-05-08T04:40:18;99638.00;;;10.44;75.40
42289;BME280;30230;47.520;19.016;2023-05-08T04:42:19;99640.19;;;10.55;74.09
42289;BME280;30230;47.520;19.016;2023-05-08T04:44:20;99641.50;;;10.66;74.86
42289;BME280;30230;47.520;19.016;2023-05-08T04:46:21;99648.97;;;10.64;70.56
42289;BME280;30230;47.520;19.016;2023-05-08T04:48:21;99660.50;;;10.51;72.17
42289;BME280;30230;47.520;19.016;2023-05-08T04:50:22;99659.41;;;10.46;72.40
42289;BME280;30230;47.520;19.016;2023-05-08T04:52:22;99660.97;;;10.55;72.84
42289;BME280;30230;47.520;19.016;2023-05-08T04:54:23;99663.44;;;10.56;71.42
42289;BME280;30230;47.520;19.016;2023-05-08T04:56:23;99664.88;;;10.52;70.31
42289;BME280;30230;47.520;19.016;2023-05-08T04:58:24;99665.25;;;10.71;69.69
42289;BME280;30230;47.520;19.016;2023-05-08T05:00:24;99669.41;;;10.73;67.97
42289;BME280;30230;47.520;19.016;2023-05-08T05:02:25;99666.63;;;10.88;68.26
42289;BME280;30230;47.520;19.016;2023-05-08T05:04:25;99669.88;;;10.77;69.40
42289;BME280;30230;47.520;19.016;2023-05-08T05:06:29;99666.25;;;10.69;69.44
42289;BME280;30230;47.520;19.016;2023-05-08T05:08:30;99655.53;;;10.76;71.02
42289;BME280;30230;47.520;19.016;2023-05-08T05:10:30;99667.75;;;10.72;69.08
42289;BME280;30230;47.520;19.016;2023-05-08T05:12:31;99663.97;;;10.66;67.79
42289;BME280;30230;47.520;19.016;2023-05-08T05:14:31;99660.56;;;10.58;67.73
42289;BME280;30230;47.520;19.016;2023-05-08T05:16:32;99661.53;;;10.50;69.19
42289;BME280;30230;47.520;19.016;2023-05-08T05:18:32;99677.31;;;10.75;70.17
42289;BME280;30230;47.520;19.016;2023-05-08T05:20:33;99673.72;;;10.67;69.50
42289;BME280;30230;47.520;19.016;2023-05-08T05:22:33;99679.91;;;10.83;70.29
42289;BME280;30230;47.520;19.016;2023-05-08T05:24:34;99676.66;;;10.94;67.03
42289;BME280;30230;47.520;19.016;2023-05-08T05:26:38;99672.66;;;10.90;67.60
42289;BME280;30230;47.520;19.016;2023-05-08T05:28:39;99669.91;;;10.83;68.38
42289;BME280;30230;47.520;19.016;2023-05-08T05:30:39;99677.81;;;10.85;68.34
42289;BME280;30230;47.520;19.016;2023-05-08T05:32:40;99687.53;;;10.79;68.06
42289;BME280;30230;47.520;19.016;2023-05-08T05:34:40;99684.91;;;10.86;66.49
42289;BME280;30230;47.520;19.016;2023-05-08T05:36:41;99688.63;;;10.85;67.95
42289;BME280;30230;47.520;19.016;2023-05-08T05:38:41;99691.94;;;10.80;67.58
42289;BME280;30230;47.520;19.016;2023-05-08T05:40:41;99684.34;;;10.69;66.12
42289;BME280;30230;47.520;19.016;2023-05-08T05:42:47;99678.69;;;10.64;66.22
42289;BME280;30230;47.520;19.016;2023-05-08T05:44:48;99673.84;;;10.59;66.43
42289;BME280;30230;47.520;19.016;2023-05-08T05:46:49;99686.59;;;10.65;67.15
42289;BME280;30230;47.520;19.016;2023-05-08T05:48:50;99690.41;;;10.71;66.25
42289;BME280;30230;47.520;19.016;2023-05-08T05:50:50;99673.59;;;10.76;64.17
42289;BME280;30230;47.520;19.016;2023-05-08T05:52:51;99701.06;;;10.79;65.37
42289;BME280;30230;47.520;19.016;2023-05-08T05:54:51;99699.59;;;10.77;64.92
42289;BME280;30230;47.520;19.016;2023-05-08T05:56:51;99708.19;;;10.87;64.97
42289;BME280;30230;47.520;19.016;2023-05-08T05:58:52;99703.94;;;10.99;64.30
42289;BME280;30230;47.520;19.016;2023-05-08T06:00:52;99706.44;;;11.01;64.85
42289;BME280;30230;47.520;19.016;2023-05-08T06:02:53;99705.75;;;10.92;64.27
42289;BME280;30230;47.520;19.016;2023-05-08T06:04:53;99705.88;;;10.84;64.41
42289;BME280;30230;47.520;19.016;2023-05-08T06:06:54;99701.56;;;10.89;63.82
42289;BME280;30230;47.520;19.016;2023-05-08T06:08:54;99695.56;;;10.94;65.83
42289;BME280;30230;47.520;19.016;2023-05-08T06:10:55;99687.22;;;10.89;64.07
42289;BME280;30230;47.520;19.016;2023-05-08T06:12:55;99694.44;;;10.82;65.25
42289;BME280;30230;47.520;19.016;2023-05-08T06:14:56;99697.56;;;11.07;67.52
42289;BME280;30230;47.520;19.016;2023-05-08T06:16:57;99697.56;;;11.41;72.52
42289;BME280;30230;47.520;19.016;2023-05-08T06:18:57;99692.41;;;11.46;66.39
42289;BME280;30230;47.520;19.016;2023-05-08T06:20:58;99689.63;;;11.33;63.10
42289;BME280;30230;47.520;19.016;2023-05-08T06:22:59;99692.94;;;11.63;62.38
42289;BME280;30230;47.520;19.016;2023-05-08T06:24:59;99708.47;;;11.48;62.85
42289;BME280;30230;47.520;19.016;2023-05-08T06:26:59;99696.00;;;11.54;62.28
42289;BME280;30230;47.520;19.016;2023-05-08T06:29:00;99704.06;;;11.47;62.80
42289;BME280;30230;47.520;19.016;2023-05-08T06:31:00;99699.88;;;11.38;63.08
42289;BME280;30230;47.520;19.016;2023-05-08T06:33:01;99703.63;;;11.43;62.58
42289;BME280;30230;47.520;19.016;2023-05-08T06:35:02;99698.50;;;11.55;65.06
42289;BME280;30230;47.520;19.016;2023-05-08T06:37:03;99705.66;;;11.69;61.11
42289;BME280;30230;47.520;19.016;2023-05-08T06:39:04;99696.28;;;11.72;62.73
42289;BME280;30230;47.520;19.016;2023-05-08T06:41:08;99696.25;;;11.65;61.27
42289;BME280;30230;47.520;19.016;2023-05-08T06:43:09;99695.59;;;11.57;63.88
42289;BME280;30230;47.520;19.016;2023-05-08T06:45:09;99704.97;;;11.89;60.22
42289;BME280;30230;47.520;19.016;2023-05-08T06:47:10;99708.28;;;11.91;62.16
42289;BME280;30230;47.520;19.016;2023-05-08T06:49:11;99710.16;;;11.90;61.11
42289;BME280;30230;47.520;19.016;2023-05-08T06:51:11;99710.19;;;11.97;61.37
42289;BME280;30230;47.520;19.016;2023-05-08T06:53:12;99713.72;;;11.91;60.57
42289;BME280;30230;47.520;19.016;2023-05-08T06:55:12;99717.00;;;11.86;62.18
42289;BME280;30230;47.520;19.016;2023-05-08T06:57:12;99711.47;;;12.01;59.68
42289;BME280;30230;47.520;19.016;2023-05-08T06:59:13;99710.28;;;12.23;60.02
42289;BME280;30230;47.520;19.016;2023-05-08T07:01:14;99707.47;;;12.58;58.12
42289;BME280;30230;47.520;19.016;2023-05-08T07:03:14;99717.06;;;12.74;59.57
42289;BME280;30230;47.520;19.016;2023-05-08T07:05:15;99707.91;;;12.75;57.66
42289;BME280;30230;47.520;19.016;2023-05-08T07:07:16;99704.97;;;12.76;57.67
42289;BME280;30230;47.520;19.016;2023-05-08T07:09:17;99715.66;;;13.24;58.47
42289;BME280;30230;47.520;19.016;2023-05-08T07:11:17;99721.47;;;13.41;57.63
42289;BME280;30230;47.520;19.016;2023-05-08T07:13:17;99715.59;;;13.58;56.67
42289;BME280;30230;47.520;19.016;2023-05-08T07:15:20;99718.91;;;13.73;54.60
42289;BME280;30230;47.520;19.016;2023-05-08T07:17:21;99722.31;;;13.55;53.90
42289;BME280;30230;47.520;19.016;2023-05-08T07:19:22;99718.34;;;13.38;54.48
42289;BME280;30230;47.520;19.016;2023-05-08T07:21:22;99728.41;;;13.24;56.46
42289;BME280;30230;47.520;19.016;2023-05-08T07:23:22;99709.38;;;13.11;55.73
42289;BME280;30230;47.520;19.016;2023-05-08T07:25:23;99722.06;;;13.63;55.67
42289;BME280;30230;47.520;19.016;2023-05-08T07:27:23;99716.94;;;14.00;56.39
42289;BME280;30230;47.520;19.016;2023-05-08T07:29:25;99715.56;;;14.29;53.77
42289;BME280;30230;47.520;19.016;2023-05-08T07:31:26;99719.44;;;14.46;54.67
42289;BME280;30230;47.520;19.016;2023-05-08T07:33:26;99714.91;;;14.33;55.61
42289;BME280;30230;47.520;19.016;2023-05-08T07:35:26;99718.09;;;14.24;54.22
42289;BME280;30230;47.520;19.016;2023-05-08T07:37:28;99728.78;;;14.19;53.38
42289;BME280;30230;47.520;19.016;2023-05-08T07:39:28;99718.13;;;14.17;53.68
42289;BME280;30230;47.520;19.016;2023-05-08T07:41:29;99715.69;;;14.02;52.86
42289;BME280;30230;47.520;19.016;2023-05-08T07:43:30;99723.56;;;14.17;53.21
42289;BME280;30230;47.520;19.016;2023-05-08T07:45:30;99728.19;;;14.10;52.29
42289;BME280;30230;47.520;19.016;2023-05-08T07:47:31;99725.16;;;14.31;54.30
42289;BME280;30230;47.520;19.016;2023-05-08T07:49:31;99721.47;;;14.57;53.02
42289;BME280;30230;47.520;19.016;2023-05-08T07:51:32;99724.97;;;14.71;51.11
42289;BME280;30230;47.520;19.016;2023-05-08T07:53:32;99726.81;;;15.02;52.40
42289;BME280;30230;47.520;19.016;2023-05-08T07:55:33;99727.13;;;14.94;51.23
42289;BME280;30230;47.520;19.016;2023-05-08T07:57:37;99725.00;;;15.21;51.08
42289;BME280;30230;47.520;19.016;2023-05-08T07:59:37;99730.31;;;15.34;50.49
42289;BME280;30230;47.520;19.016;2023-05-08T08:01:38;99709.69;;;15.45;49.84
42289;BME280;30230;47.520;19.016;2023-05-08T08:03:38;99714.53;;;15.68;49.44
42289;BME280;30230;47.520;19.016;2023-05-08T08:05:39;99731.31;;;15.65;48.03
42289;BME280;30230;47.520;19.016;2023-05-08T08:07:39;99717.50;;;15.60;47.81
42289;BME280;30230;47.520;19.016;2023-05-08T08:09:39;99721.88;;;15.86;47.28
42289;BME280;30230;47.520;19.016;2023-05-08T08:11:40;99715.75;;;16.09;49.42
42289;BME280;30230;47.520;19.016;2023-05-08T08:13:40;99709.41;;;16.27;47.73
42289;BME280;30230;47.520;19.016;2023-05-08T08:15:41;99713.94;;;16.33;47.83
42289;BME280;30230;47.520;19.016;2023-05-08T08:17:41;99714.44;;;16.30;46.01
42289;BME280;30230;47.520;19.016;2023-05-08T08:19:42;99725.56;;;16.58;46.37
42289;BME280;30230;47.520;19.016;2023-05-08T08:21:42;99715.97;;;16.56;45.47
42289;BME280;30230;47.520;19.016;2023-05-08T08:23:43;99717.63;;;16.99;52.76
42289;BME280;30230;47.520;19.016;2023-05-08T08:25:43;99714.34;;;17.08;46.92
42289;BME280;30230;47.520;19.016;2023-05-08T08:27:44;99729.44;;;17.11;46.94
42289;BME280;30230;47.520;19.016;2023-05-08T08:29:44;99710.78;;;17.19;44.18
42289;BME280;30230;47.520;19.016;2023-05-08T08:31:44;99705.56;;;17.18;44.10
42289;BME280;30230;47.520;19.016;2023-05-08T08:33:45;99712.34;;;17.27;44.77
42289;BME280;30230;47.520;19.016;2023-05-08T08:35:45;99708.66;;;17.57;45.13
42289;BME280;30230;47.520;19.016;2023-05-08T08:37:46;99710.22;;;17.53;44.59
42289;BME280;30230;47.520;19.016;2023-05-08T08:39:46;99714.97;;;17.69;46.14
42289;BME280;30230;47.520;19.016;2023-05-08T08:41:49;99715.69;;;17.76;43.16
42289;BME280;30230;47.520;19.016;2023-05-08T08:43:50;99698.69;;;17.51;44.68
42289;BME280;30230;47.520;19.016;2023-05-08T08:45:50;99703.66;;;17.77;43.25
42289;BME280;30230;47.520;19.016;2023-05-08T08:47:51;99709.16;;;17.89;45.28
42289;BME280;30230;47.520;19.016;2023-05-08T08:49:53;99722.28;;;18.04;42.15
42289;BME280;30230;47.520;19.016;2023-05-08T08:52:30;99694.88;;;17.87;41.65
42289;BME280;30230;47.520;19.016;2023-05-08T08:54:32;99718.34;;;18.11;41.59
42289;BME280;30230;47.520;19.016;2023-05-08T08:56:42;99708.69;;;18.20;42.01
42289;BME280;30230;47.520;19.016;2023-05-08T08:58:46;99713.75;;;18.40;40.49
42289;BME280;30230;47.520;19.016;2023-05-08T09:00:50;99713.28;;;18.32;40.46
42289;BME280;30230;47.520;19.016;2023-05-08T09:02:51;99712.16;;;18.44;39.33
42289;BME280;30230;47.520;19.016;2023-05-08T09:04:51;99710.13;;;18.52;41.21
42289;BME280;30230;47.520;19.016;2023-05-08T09:06:52;99715.94;;;18.84;41.00
42289;BME280;30230;47.520;19.016;2023-05-08T09:08:57;99702.16;;;18.79;38.50
42289;BME280;30230;47.520;19.016;2023-05-08T09:11:00;99703.56;;;18.81;38.96
42289;BME280;30230;47.520;19.016;2023-05-08T09:13:04;99701.16;;;18.68;40.79
42289;BME280;30230;47.520;19.016;2023-05-08T09:15:05;99708.72;;;18.94;38.56
42289;BME280;30230;47.520;19.016;2023-05-08T09:17:08;99710.16;;;18.97;38.91
42289;BME280;30230;47.520;19.016;2023-05-08T09:19:12;99702.69;;;18.92;39.42
42289;BME280;30230;47.520;19.016;2023-05-08T09:21:13;99702.44;;;19.11;40.56
42289;BME280;30230;47.520;19.016;2023-05-08T09:23:14;99699.94;;;19.26;38.71
42289;BME280;30230;47.520;19.016;2023-05-08T09:25:16;99703.84;;;19.30;38.76
42289;BME280;30230;47.520;19.016;2023-05-08T09:27:22;99702.50;;;19.16;38.34
42289;BME280;30230;47.520;19.016;2023-05-08T09:29:22;99703.84;;;19.30;37.07
42289;BME280;30230;47.520;19.016;2023-05-08T09:31:33;99704.25;;;19.39;38.73
42289;BME280;30230;47.520;19.016;2023-05-08T09:33:43;99699.53;;;19.34;36.71
42289;BME280;30230;47.520;19.016;2023-05-08T09:35:44;99703.06;;;19.51;38.12
42289;BME280;30230;47.520;19.016;2023-05-08T09:37:44;99708.25;;;19.65;37.93
42289;BME280;30230;47.520;19.016;2023-05-08T09:39:46;99710.66;;;19.61;38.01
42289;BME280;30230;47.520;19.016;2023-05-08T09:42:00;99698.19;;;19.92;36.32
42289;BME280;30230;47.520;19.016;2023-05-08T09:44:02;99708.78;;;20.06;35.01
42289;BME280;30230;47.520;19.016;2023-05-08T09:48:18;99695.72;;;20.40;36.81
42289;BME280;30230;47.520;19.016;2023-05-08T09:50:18;99696.44;;;20.30;36.57
42289;BME280;30230;47.520;19.016;2023-05-08T09:52:19;99701.44;;;20.33;35.31
42289;BME280;30230;47.520;19.016;2023-05-08T09:54:19;99698.47;;;20.62;35.37
42289;BME280;30230;47.520;19.016;2023-05-08T09:58:40;99700.16;;;20.63;34.42
42289;BME280;30230;47.520;19.016;2023-05-08T10:00:41;99686.47;;;20.68;34.46
42289;BME280;30230;47.520;19.016;2023-05-08T10:04:54;99680.97;;;20.68;33.49
42289;BME280;30230;47.520;19.016;2023-05-08T10:06:57;99690.81;;;20.64;33.05
42289;BME280;30230;47.520;19.016;2023-05-08T10:11:17;99691.69;;;21.01;35.67
42289;BME280;30230;47.520;19.016;2023-05-08T10:13:18;99686.66;;;20.88;33.95
42289;BME280;30230;47.520;19.016;2023-05-08T10:15:24;99676.56;;;20.94;34.31
42289;BME280;30230;47.520;19.016;2023-05-08T10:17:45;99673.16;;;20.87;34.48
42289;BME280;30230;47.520;19.016;2023-05-08T10:19:51;99689.22;;;21.00;35.42
42289;BME280;30230;47.520;19.016;2023-05-08T10:21:56;99675.53;;;21.05;32.04
42289;BME280;30230;47.520;19.016;2023-05-08T10:24:04;99667.47;;;20.93;32.35
42289;BME280;30230;47.520;19.016;2023-05-08T10:26:10;99669.22;;;21.04;33.61
42289;BME280;30230;47.520;19.016;2023-05-08T10:30:37;99660.19;;;21.46;32.65
42289;BME280;30230;47.520;19.016;2023-05-08T10:32:42;99666.81;;;21.45;32.53
42289;BME280;30230;47.520;19.016;2023-05-08T10:34:43;99661.41;;;21.61;32.27
42289;BME280;30230;47.520;19.016;2023-05-08T10:36:46;99656.81;;;21.81;31.71
42289;BME280;30230;47.520;19.016;2023-05-08T10:38:48;99660.78;;;21.53;30.41
42289;BME280;30230;47.520;19.016;2023-05-08T10:40:49;99668.47;;;21.51;31.11
42289;BME280;30230;47.520;19.016;2023-05-08T10:42:52;99674.56;;;21.21;30.09
42289;BME280;30230;47.520;19.016;2023-05-08T10:44:56;99655.75;;;21.35;31.17
42289;BME280;30230;47.520;19.016;2023-05-08T10:47:05;99648.63;;;21.44;32.79
42289;BME280;30230;47.520;19.016;2023-05-08T10:49:19;99652.66;;;21.79;32.30
42289;BME280;30230;47.520;19.016;2023-05-08T10:51:46;99662.69;;;22.05;32.97
42289;BME280;30230;47.520;19.016;2023-05-08T10:53:58;99653.94;;;22.14;30.95
42289;BME280;30230;47.520;19.016;2023-05-08T10:56:01;99655.06;;;22.18;31.34
42289;BME280;30230;47.520;19.016;2023-05-08T10:58:06;99651.47;;;22.22;29.80
42289;BME280;30230;47.520;19.016;2023-05-08T11:00:08;99644.06;;;22.18;31.07
42289;BME280;30230;47.520;19.016;2023-05-08T11:02:09;99634.16;;;22.22;30.26
42289;BME280;30230;47.520;19.016;2023-05-08T11:04:22;99644.09;;;22.48;31.58
42289;BME280;30230;47.520;19.016;2023-05-08T11:06:45;99632.59;;;22.72;31.62
42289;BME280;30230;47.520;19.016;2023-05-08T11:08:50;99643.59;;;22.61;30.98
42289;BME280;30230;47.520;19.016;2023-05-08T11:13:04;99641.38;;;22.53;29.62
42289;BME280;30230;47.520;19.016;2023-05-08T11:15:06;99629.28;;;22.70;31.79
42289;BME280;30230;47.520;19.016;2023-05-08T11:17:08;99640.31;;;22.85;29.96